createdAt,value
2023-02-24T00:02:00.579Z,60.35
2023-02-24T00:04:30.591Z,60.78
2023-02-24T00:06:59.997Z,60.73
2023-02-24T00:09:31.081Z,59.96
2023-02-24T00:12:01.238Z,58.74
2023-02-24T00:14:32.478Z,58.63
2023-02-24T00:17:00.825Z,58.84
2023-02-24T00:19:32.859Z,59.26
2023-02-24T00:22:03.296Z,60.26
2023-02-24T00:24:32.290Z,59.70
2023-02-24T00:27:07.735Z,60.48
2023-02-24T00:29:37.620Z,62.08
2023-02-24T00:32:08.097Z,62.63
2023-02-24T00:34:38.307Z,61.97
2023-02-24T00:37:08.431Z,61.83
2023-02-24T00:39:41.705Z,61.69
2023-02-24T00:42:12.316Z,61.44
2023-02-24T00:44:42.133Z,61.14
2023-02-24T00:47:11.739Z,62.76
2023-02-24T00:49:43.112Z,61.29
2023-02-24T00:52:15.094Z,61.05
2023-02-24T00:54:46.238Z,60.64
2023-02-24T00:57:14.374Z,61.01
2023-02-24T00:59:47.537Z,61.53
2023-02-24T01:02:16.370Z,61.11
2023-02-24T01:04:46.100Z,60.70
2023-02-24T01:07:16.492Z,61.51
2023-02-24T01:09:44.758Z,60.94
2023-02-24T01:12:38.838Z,61.25
2023-02-24T01:15:10.087Z,61.19
2023-02-24T01:17:40.843Z,60.74
2023-02-24T01:20:16.617Z,60.35
2023-02-24T01:22:48.298Z,60.04
2023-02-24T01:25:19.349Z,59.77
2023-02-24T01:27:47.479Z,60.23
2023-02-24T01:30:18.614Z,60.20
2023-02-24T01:32:48.178Z,60.70
2023-02-24T01:35:16.516Z,61.88
2023-02-24T01:37:46.326Z,62.53
2023-02-24T01:40:21.633Z,62.42
2023-02-24T01:42:50.694Z,62.00
2023-02-24T01:45:25.190Z,63.73
2023-02-24T01:47:55.000Z,63.13
2023-02-24T01:50:26.322Z,63.44
2023-02-24T01:52:59.921Z,62.81
2023-02-24T01:55:32.717Z,62.26
2023-02-24T01:58:04.972Z,62.23
2023-02-24T02:00:37.905Z,61.29
2023-02-24T02:03:12.263Z,60.56
2023-02-24T02:05:42.260Z,60.71
2023-02-24T02:08:12.989Z,61.10
2023-02-24T02:10:44.354Z,60.94
2023-02-24T02:13:14.688Z,61.08
2023-02-24T02:15:53.621Z,60.81
2023-02-24T02:18:33.301Z,60.74
2023-02-24T02:21:25.900Z,59.99
2023-02-24T02:24:27.242Z,59.04
2023-02-24T02:27:19.913Z,59.64
2023-02-24T02:30:26.144Z,59.67
2023-02-24T02:33:33.869Z,60.08
2023-02-24T02:36:13.756Z,61.10
2023-02-24T02:38:54.120Z,61.56
2023-02-24T02:41:28.628Z,62.63
2023-02-24T02:44:07.532Z,63.04
2023-02-24T02:46:42.599Z,63.53
2023-02-24T02:49:19.190Z,65.21
2023-02-24T02:51:52.742Z,65.39
2023-02-24T02:54:30.543Z,65.86
2023-02-24T02:57:05.259Z,65.81
2023-02-24T02:59:38.708Z,64.38
2023-02-24T03:02:14.946Z,64.60
2023-02-24T03:04:51.362Z,64.40
2023-02-24T03:07:23.779Z,63.51
2023-02-24T03:09:57.028Z,63.35
2023-02-24T03:12:27.896Z,63.33
2023-02-24T03:15:02.208Z,63.85
2023-02-24T03:17:37.108Z,63.12
2023-02-24T03:20:16.965Z,62.88
2023-02-24T03:22:50.336Z,62.94
2023-02-24T03:25:24.341Z,62.46
2023-02-24T03:27:58.664Z,61.57
2023-02-24T03:30:33.672Z,62.33
2023-02-24T03:33:06.518Z,63.11
2023-02-24T03:35:40.249Z,62.66
2023-02-24T03:38:11.247Z,62.64
2023-02-24T03:40:40.552Z,63.03
2023-02-24T03:43:16.975Z,63.51
2023-02-24T03:45:47.639Z,62.08
2023-02-24T03:48:17.465Z,61.80
2023-02-24T03:50:47.395Z,60.67
2023-02-24T03:53:41.877Z,61.73
2023-02-24T03:56:28.735Z,61.25
2023-02-24T03:59:15.208Z,61.00
2023-02-24T04:01:51.914Z,61.02
2023-02-24T04:04:30.390Z,61.69
2023-02-24T04:07:15.317Z,63.99
2023-02-24T04:09:52.049Z,63.56
2023-02-24T04:12:26.974Z,63.53
2023-02-24T04:15:08.421Z,65.61
2023-02-24T04:17:43.018Z,64.54
2023-02-24T04:20:15.887Z,62.99
2023-02-24T04:22:51.954Z,63.44
2023-02-24T04:25:25.023Z,64.14
2023-02-24T04:27:56.874Z,63.85
2023-02-24T04:30:29.735Z,64.52
2023-02-24T04:32:58.323Z,64.22
2023-02-24T04:35:27.844Z,63.25
2023-02-24T04:37:57.921Z,63.98
2023-02-24T04:40:27.905Z,62.80
2023-02-24T04:42:56.025Z,62.36
2023-02-24T04:45:27.397Z,62.12
2023-02-24T04:48:00.892Z,63.95
2023-02-24T04:50:31.461Z,63.15
2023-02-24T04:53:01.590Z,62.22
2023-02-24T04:55:34.104Z,62.83
2023-02-24T04:58:03.004Z,62.01
2023-02-24T05:00:35.390Z,63.20
2023-02-24T05:03:05.814Z,62.48
2023-02-24T05:05:35.627Z,62.50
2023-02-24T05:08:07.404Z,63.12
2023-02-24T05:10:40.441Z,62.06
2023-02-24T05:13:09.536Z,62.71
2023-02-24T05:15:41.165Z,62.78
2023-02-24T05:18:14.206Z,62.08
2023-02-24T05:21:03.141Z,62.28
2023-02-24T05:23:34.041Z,62.85
2023-02-24T05:26:08.983Z,62.50
2023-02-24T05:28:38.038Z,62.89
2023-02-24T05:31:08.771Z,62.34
2023-02-24T05:33:38.781Z,63.22
2023-02-24T05:36:09.905Z,62.99
2023-02-24T05:38:38.435Z,62.15
2023-02-24T05:41:15.174Z,62.94
2023-02-24T05:43:48.220Z,63.88
2023-02-24T05:46:16.607Z,62.51
2023-02-24T05:48:45.065Z,62.78
2023-02-24T05:51:13.263Z,63.78
2023-02-24T05:53:42.414Z,62.93
2023-02-24T05:56:12.532Z,62.73
2023-02-24T05:58:40.699Z,62.88
2023-02-24T06:01:16.471Z,62.66
2023-02-24T06:03:48.043Z,62.42
2023-02-24T06:06:16.777Z,62.27
2023-02-24T06:08:50.073Z,62.09
2023-02-24T06:11:21.428Z,62.01
2023-02-24T06:13:49.758Z,61.12
2023-02-24T06:16:19.915Z,60.89
2023-02-24T06:18:50.755Z,60.71
2023-02-24T06:21:20.253Z,61.42
2023-02-24T06:23:48.469Z,60.42
2023-02-24T06:26:19.626Z,60.29
2023-02-24T06:28:50.011Z,60.07
2023-02-24T06:31:18.314Z,60.52
2023-02-24T06:33:46.472Z,61.06
2023-02-24T06:36:15.451Z,59.20
2023-02-24T06:38:44.025Z,60.07
2023-02-24T06:41:11.983Z,61.06
2023-02-24T06:43:40.996Z,61.60
2023-02-24T06:46:11.924Z,62.18
2023-02-24T06:48:40.749Z,62.66
2023-02-24T06:51:15.720Z,62.86
2023-02-24T06:53:45.014Z,61.97
2023-02-24T06:56:15.930Z,61.80
2023-02-24T06:58:45.125Z,62.19
2023-02-24T07:01:16.282Z,61.31
2023-02-24T07:03:47.541Z,62.69
2023-02-24T07:06:23.943Z,61.87
2023-02-24T07:08:53.165Z,62.55
2023-02-24T07:11:22.674Z,61.51
2023-02-24T07:13:51.086Z,62.36
2023-02-24T07:16:25.235Z,61.72
2023-02-24T07:18:56.699Z,62.08
2023-02-24T07:21:26.897Z,61.60
2023-02-24T07:23:58.921Z,60.80
2023-02-24T07:26:30.473Z,61.39
2023-02-24T07:28:58.520Z,60.89
2023-02-24T07:31:27.937Z,61.13
2023-02-24T07:33:57.682Z,61.58
2023-02-24T07:36:30.357Z,62.64
2023-02-24T07:39:01.740Z,61.98
2023-02-24T07:41:31.450Z,61.88
2023-02-24T07:44:03.246Z,62.05
2023-02-24T07:46:33.606Z,60.58
2023-02-24T07:49:03.536Z,63.13
2023-02-24T07:51:32.149Z,62.05
2023-02-24T07:54:01.467Z,62.33
2023-02-24T07:56:31.221Z,61.52
2023-02-24T07:59:01.958Z,62.08
2023-02-24T08:01:39.054Z,62.00
2023-02-24T08:04:09.119Z,61.30
2023-02-24T08:06:46.159Z,60.08
2023-02-24T08:09:20.809Z,60.04
2023-02-24T08:11:52.472Z,60.06
2023-02-24T08:14:23.664Z,58.07
2023-02-24T08:16:59.426Z,58.50
2023-02-24T08:19:32.905Z,58.87
2023-02-24T08:22:19.494Z,58.22
2023-02-24T08:24:50.267Z,58.37
2023-02-24T08:27:20.261Z,59.29
2023-02-24T08:29:59.046Z,59.28
2023-02-24T08:32:34.091Z,60.40
2023-02-24T08:35:04.845Z,60.00
2023-02-24T08:37:39.835Z,60.52
2023-02-24T08:40:29.765Z,60.36
2023-02-24T08:42:59.628Z,59.94
2023-02-24T08:45:29.355Z,59.64
2023-02-24T08:48:00.777Z,59.66
2023-02-24T08:50:31.213Z,58.96
2023-02-24T08:53:01.184Z,58.36
2023-02-24T08:55:33.024Z,57.70
2023-02-24T08:58:02.472Z,57.38
2023-02-24T09:00:49.096Z,57.23
2023-02-24T09:03:28.988Z,56.65
2023-02-24T09:06:04.669Z,57.34
2023-02-24T09:08:34.940Z,56.38
2023-02-24T09:11:08.171Z,57.10
2023-02-24T09:13:37.402Z,57.29
2023-02-24T09:16:06.394Z,55.78
2023-02-24T09:18:39.672Z,56.18
2023-02-24T09:21:37.400Z,55.62
2023-02-24T09:24:07.482Z,56.24
2023-02-24T09:26:43.355Z,56.36
2023-02-24T09:29:33.775Z,56.65
2023-02-24T09:32:13.572Z,56.46
2023-02-24T09:34:44.764Z,56.67
2023-02-24T09:37:24.949Z,55.75
2023-02-24T09:40:23.640Z,55.58
2023-02-24T09:42:58.430Z,56.25
2023-02-24T09:45:33.916Z,56.63
2023-02-24T09:48:11.512Z,57.88
2023-02-24T09:51:04.504Z,58.38
2023-02-24T09:53:49.578Z,57.34
2023-02-24T09:56:26.490Z,58.09
2023-02-24T09:59:10.397Z,57.87
2023-02-24T10:01:45.831Z,57.27
2023-02-24T10:04:30.839Z,56.34
2023-02-24T10:07:06.070Z,57.74
2023-02-24T10:09:38.368Z,56.86
2023-02-24T10:12:15.065Z,56.19
2023-02-24T10:14:53.005Z,57.62
2023-02-24T10:17:30.733Z,58.06
2023-02-24T10:20:13.794Z,58.53
2023-02-24T10:22:51.555Z,58.53
2023-02-24T10:25:41.260Z,59.23
2023-02-24T10:28:23.165Z,59.54
2023-02-24T10:31:04.237Z,57.90
2023-02-24T10:33:39.191Z,57.77
2023-02-24T10:36:11.029Z,58.39
2023-02-24T10:38:45.519Z,58.75
2023-02-24T10:41:14.827Z,57.13
2023-02-24T10:43:54.055Z,58.45
2023-02-24T10:46:40.214Z,54.83
2023-02-24T10:49:16.675Z,54.04
2023-02-24T10:51:52.327Z,54.22
2023-02-24T10:55:05.206Z,56.79
2023-02-24T10:57:44.735Z,55.75
2023-02-24T11:00:51.605Z,56.30
2023-02-24T11:03:35.862Z,54.06
2023-02-24T11:06:30.435Z,53.83
2023-02-24T11:09:19.223Z,53.04
2023-02-24T11:12:07.324Z,53.74
2023-02-24T11:15:19.769Z,52.98
2023-02-24T11:17:51.951Z,55.67
2023-02-24T11:20:46.063Z,56.13
2023-02-24T11:23:20.278Z,51.82
2023-02-24T11:25:53.545Z,52.05
2023-02-24T11:28:38.596Z,51.52
2023-02-24T11:31:17.410Z,54.14
2023-02-24T11:33:57.326Z,54.03
2023-02-24T11:36:37.235Z,53.59
2023-02-24T11:39:22.720Z,53.97
2023-02-24T11:41:55.565Z,55.14
2023-02-24T11:44:31.676Z,53.80
2023-02-24T11:47:07.358Z,52.62
2023-02-24T11:49:42.255Z,54.30
2023-02-24T11:52:17.262Z,54.63
2023-02-24T11:54:51.671Z,54.05
2023-02-24T11:57:25.038Z,55.06
2023-02-24T12:00:04.902Z,54.88
2023-02-24T12:02:47.382Z,54.55
2023-02-24T12:05:18.074Z,54.43
2023-02-24T12:07:51.700Z,55.64
2023-02-24T12:10:24.362Z,53.81
2023-02-24T12:13:02.068Z,53.65
2023-02-24T12:15:34.996Z,54.39
2023-02-24T12:18:13.632Z,53.77
2023-02-24T12:20:48.460Z,53.77
2023-02-24T12:23:19.168Z,53.50
2023-02-24T12:26:04.903Z,53.41
2023-02-24T12:28:46.664Z,53.43
2023-02-24T12:31:27.355Z,52.62
2023-02-24T12:34:08.686Z,50.06
2023-02-24T12:36:49.183Z,52.82
2023-02-24T12:39:22.480Z,54.39
2023-02-24T12:42:01.302Z,51.95
2023-02-24T12:44:38.098Z,52.10
2023-02-24T12:47:12.733Z,53.28
2023-02-24T12:49:59.688Z,53.89
2023-02-24T12:52:35.544Z,53.38
2023-02-24T12:55:12.839Z,54.16
2023-02-24T12:57:49.242Z,53.09
2023-02-24T13:00:25.560Z,53.78
2023-02-24T13:03:05.722Z,53.20
2023-02-24T13:05:42.137Z,53.51
2023-02-24T13:08:19.833Z,53.68
2023-02-24T13:10:51.933Z,52.22
2023-02-24T13:13:29.262Z,53.02
2023-02-24T13:16:00.172Z,53.87
2023-02-24T13:18:32.326Z,53.37
2023-02-24T13:21:06.931Z,53.61
2023-02-24T13:23:35.744Z,54.89
2023-02-24T13:26:05.002Z,54.24
2023-02-24T13:28:36.358Z,55.48
2023-02-24T13:31:07.400Z,54.82
2023-02-24T13:33:39.100Z,57.07
2023-02-24T13:36:12.642Z,57.36
2023-02-24T13:38:42.765Z,57.02
2023-02-24T13:41:36.240Z,57.47
2023-02-24T13:44:21.968Z,56.11
2023-02-24T13:46:59.541Z,53.76
2023-02-24T13:49:37.124Z,54.33
2023-02-24T13:52:15.714Z,54.79
2023-02-24T13:55:06.454Z,54.88
2023-02-24T13:57:57.362Z,54.70
2023-02-24T14:00:36.061Z,55.45
2023-02-24T14:03:12.694Z,55.91
2023-02-24T14:05:44.253Z,56.17
2023-02-24T14:08:21.117Z,55.50
2023-02-24T14:10:53.834Z,56.47
2023-02-24T14:13:27.760Z,56.62
2023-02-24T14:15:56.464Z,56.59
2023-02-24T14:18:27.356Z,56.23
2023-02-24T14:20:58.620Z,55.88
2023-02-24T14:23:29.223Z,56.31
2023-02-24T14:25:59.746Z,55.90
2023-02-24T14:28:31.735Z,55.50
2023-02-24T14:31:02.753Z,55.21
2023-02-24T14:33:33.430Z,55.91
2023-02-24T14:36:03.825Z,54.63
2023-02-24T14:38:34.776Z,55.25
2023-02-24T14:41:03.829Z,54.16
2023-02-24T14:43:31.926Z,54.29
2023-02-24T14:46:06.607Z,54.33
2023-02-24T14:48:35.267Z,53.67
2023-02-24T14:51:10.603Z,53.71
2023-02-24T14:53:45.793Z,54.92
2023-02-24T14:56:14.673Z,53.24
2023-02-24T14:58:47.813Z,53.40
2023-02-24T15:01:21.736Z,54.25
2023-02-24T15:03:52.489Z,55.48
2023-02-24T15:06:26.721Z,55.69
2023-02-24T15:08:59.544Z,54.94
2023-02-24T15:11:31.294Z,55.63
2023-02-24T15:14:02.612Z,55.26
2023-02-24T15:16:37.763Z,54.83
2023-02-24T15:19:06.447Z,56.74
2023-02-24T15:21:41.148Z,56.08
2023-02-24T15:24:19.726Z,55.76
2023-02-24T15:26:54.126Z,56.04
2023-02-24T15:29:26.883Z,54.95
2023-02-24T15:31:56.860Z,55.80
2023-02-24T15:34:28.197Z,55.19
2023-02-24T15:37:01.470Z,55.55
2023-02-24T15:39:31.674Z,55.59
2023-02-24T15:42:08.351Z,55.58
2023-02-24T15:44:37.891Z,56.09
2023-02-24T15:47:20.267Z,56.54
2023-02-24T15:49:48.496Z,56.85
2023-02-24T15:52:23.727Z,56.95
2023-02-24T15:54:52.358Z,57.17
2023-02-24T15:57:21.344Z,57.44
2023-02-24T15:59:49.676Z,57.13
2023-02-24T16:02:20.012Z,57.33
2023-02-24T16:04:48.252Z,57.43
2023-02-24T16:07:20.488Z,56.21
2023-02-24T16:09:50.909Z,56.55
2023-02-24T16:12:22.439Z,56.33
2023-02-24T16:14:55.783Z,55.25
2023-02-24T16:17:31.561Z,54.95
2023-02-24T16:20:00.286Z,56.06
2023-02-24T16:22:30.656Z,56.43
2023-02-24T16:24:58.641Z,56.15
2023-02-24T16:27:29.561Z,55.23
2023-02-24T16:29:58.146Z,54.18
2023-02-24T16:32:28.128Z,55.18
2023-02-24T16:34:56.509Z,56.13
2023-02-24T16:37:27.565Z,56.01
2023-02-24T16:39:57.389Z,55.97
2023-02-24T16:42:25.284Z,55.35
2023-02-24T16:44:53.262Z,56.45
2023-02-24T16:47:24.426Z,56.17
2023-02-24T16:49:55.388Z,56.56
2023-02-24T16:52:24.941Z,55.96
2023-02-24T16:54:53.172Z,55.95
2023-02-24T16:57:25.787Z,56.93
2023-02-24T16:59:54.474Z,55.87
2023-02-24T17:02:25.240Z,56.04
2023-02-24T17:04:54.191Z,56.83
2023-02-24T17:07:22.712Z,56.11
2023-02-24T17:09:50.744Z,55.82
2023-02-24T17:12:22.548Z,55.50
2023-02-24T17:14:51.035Z,55.00
2023-02-24T17:17:20.691Z,54.67
2023-02-24T17:19:48.742Z,55.52
2023-02-24T17:22:17.796Z,55.66
2023-02-24T17:24:46.060Z,55.39
2023-02-24T17:27:14.132Z,55.28
2023-02-24T17:29:43.655Z,55.98
2023-02-24T17:32:11.911Z,55.00
2023-02-24T17:34:40.351Z,54.34
2023-02-24T17:37:08.534Z,54.64
2023-02-24T17:39:36.968Z,54.54
2023-02-24T17:42:05.106Z,54.46
2023-02-24T17:44:33.741Z,54.68
2023-02-24T17:47:03.295Z,54.26
2023-02-24T17:49:31.314Z,53.96
2023-02-24T17:51:59.738Z,53.88
2023-02-24T17:54:27.855Z,54.15
2023-02-24T17:56:55.698Z,54.62
2023-02-24T17:59:24.096Z,54.06
2023-02-24T18:01:52.188Z,54.63
2023-02-24T18:04:22.164Z,54.66
2023-02-24T18:06:50.710Z,57.15
2023-02-24T18:09:20.204Z,55.82
2023-02-24T18:11:48.549Z,57.88
2023-02-24T18:14:16.671Z,57.41
2023-02-24T18:16:44.935Z,58.47
2023-02-24T18:19:13.250Z,59.04
2023-02-24T18:21:42.923Z,60.16
2023-02-24T18:24:39.396Z,60.25
2023-02-24T18:27:07.759Z,60.23
2023-02-24T18:29:35.908Z,60.91
2023-02-24T18:32:05.110Z,59.60
2023-02-24T18:34:33.413Z,60.15
2023-02-24T18:37:02.967Z,59.76
2023-02-24T18:39:31.371Z,60.15
2023-02-24T18:41:59.996Z,59.13
2023-02-24T18:44:27.982Z,59.94
2023-02-24T18:46:56.022Z,59.32
2023-02-24T18:49:24.080Z,59.58
2023-02-24T18:51:52.214Z,60.36
2023-02-24T18:54:21.914Z,60.81
2023-02-24T18:56:50.033Z,59.70
2023-02-24T18:59:18.225Z,61.20
2023-02-24T19:01:46.163Z,60.20
2023-02-24T19:04:16.174Z,60.20
2023-02-24T19:06:49.003Z,60.12
2023-02-24T19:09:21.707Z,60.67
2023-02-24T19:11:54.282Z,60.37
2023-02-24T19:14:22.686Z,59.87
2023-02-24T19:16:50.946Z,60.58
2023-02-24T19:19:19.018Z,61.70
2023-02-24T19:21:48.494Z,62.34
2023-02-24T19:24:17.721Z,62.90
2023-02-24T19:26:47.579Z,61.74
2023-02-24T19:29:17.678Z,62.84
2023-02-24T19:31:46.606Z,61.53
2023-02-24T19:34:15.622Z,63.39
2023-02-24T19:36:43.745Z,62.90
2023-02-24T19:39:22.751Z,63.31
2023-02-24T19:41:51.188Z,62.50
2023-02-24T19:44:20.651Z,63.32
2023-02-24T19:46:49.046Z,63.49
2023-02-24T19:49:17.418Z,63.87
2023-02-24T19:51:48.139Z,62.41
2023-02-24T19:54:17.217Z,62.41
2023-02-24T19:56:45.221Z,63.00
2023-02-24T19:59:13.467Z,62.26
2023-02-24T20:01:43.403Z,62.52
2023-02-24T20:04:12.925Z,61.94
2023-02-24T20:06:43.067Z,63.10
2023-02-24T20:09:15.542Z,63.57
2023-02-24T20:11:45.464Z,63.19
2023-02-24T20:14:14.954Z,64.33
2023-02-24T20:16:45.636Z,63.49
2023-02-24T20:19:15.871Z,63.15
2023-02-24T20:21:43.895Z,63.15
2023-02-24T20:24:14.698Z,62.84
2023-02-24T20:26:46.398Z,62.96
2023-02-24T20:29:15.630Z,63.78
2023-02-24T20:31:46.525Z,63.70
2023-02-24T20:34:16.740Z,63.03
2023-02-24T20:36:44.851Z,62.22
2023-02-24T20:39:13.552Z,62.26
2023-02-24T20:41:41.903Z,62.35
2023-02-24T20:44:10.660Z,62.07
2023-02-24T20:46:39.658Z,61.92
2023-02-24T20:49:11.843Z,61.20
2023-02-24T20:51:40.149Z,62.11
2023-02-24T20:54:10.419Z,62.48
2023-02-24T20:56:40.180Z,62.01
2023-02-24T20:59:10.124Z,62.46
2023-02-24T21:01:39.402Z,62.19
2023-02-24T21:04:07.996Z,62.13
2023-02-24T21:06:38.302Z,62.79
2023-02-24T21:09:07.013Z,61.81
2023-02-24T21:11:35.393Z,62.32
2023-02-24T21:14:03.336Z,61.55
2023-02-24T21:16:31.727Z,62.73
2023-02-24T21:19:00.148Z,63.81
2023-02-24T21:21:29.436Z,63.32
2023-02-24T21:23:58.743Z,62.14
2023-02-24T21:26:29.234Z,62.81
2023-02-24T21:28:59.366Z,62.21
2023-02-24T21:31:28.793Z,62.47
2023-02-24T21:33:57.304Z,62.89
2023-02-24T21:36:28.153Z,61.61
2023-02-24T21:38:57.904Z,62.57
2023-02-24T21:41:26.008Z,63.22
2023-02-24T21:43:55.815Z,63.41
2023-02-24T21:46:49.826Z,62.92
2023-02-24T21:49:18.277Z,60.93
2023-02-24T21:51:46.898Z,62.62
2023-02-24T21:54:16.489Z,63.72
2023-02-24T21:56:44.514Z,63.91
2023-02-24T21:59:13.032Z,63.34
2023-02-24T22:01:44.539Z,62.77
2023-02-24T22:04:15.298Z,62.44
2023-02-24T22:06:44.846Z,63.26
2023-02-24T22:09:19.461Z,63.83
2023-02-24T22:11:50.189Z,63.89
2023-02-24T22:14:20.640Z,63.18
2023-02-24T22:16:48.810Z,62.62
2023-02-24T22:19:19.220Z,63.02
2023-02-24T22:21:47.437Z,63.25
2023-02-24T22:24:17.368Z,63.55
2023-02-24T22:26:46.082Z,63.70
2023-02-24T22:29:15.578Z,63.20
2023-02-24T22:31:47.635Z,63.84
2023-02-24T22:34:17.212Z,63.92
2023-02-24T22:36:45.309Z,64.23
2023-02-24T22:39:16.623Z,64.14
2023-02-24T22:41:45.639Z,64.04
2023-02-24T22:44:19.127Z,64.25
2023-02-24T22:46:48.374Z,64.18
2023-02-24T22:49:16.635Z,63.53
2023-02-24T22:51:56.545Z,63.81
2023-02-24T22:54:24.579Z,63.95
2023-02-24T22:56:53.859Z,63.14
2023-02-24T22:59:24.607Z,63.84
2023-02-24T23:01:53.813Z,63.59
2023-02-24T23:04:21.779Z,63.17
2023-02-24T23:06:49.702Z,62.99
2023-02-24T23:09:20.113Z,62.31
2023-02-24T23:11:48.940Z,62.51
2023-02-24T23:14:17.551Z,62.35
2023-02-24T23:16:48.403Z,62.17
2023-02-24T23:19:18.545Z,62.70
2023-02-24T23:21:49.802Z,62.41
2023-02-24T23:24:20.173Z,62.18
2023-02-24T23:26:51.444Z,62.20
2023-02-24T23:29:20.719Z,62.87
2023-02-24T23:31:50.477Z,62.36
2023-02-24T23:34:19.509Z,62.69
2023-02-24T23:36:48.221Z,62.67
2023-02-24T23:39:20.557Z,62.68
2023-02-24T23:41:48.619Z,63.41
2023-02-24T23:44:17.013Z,64.10
2023-02-24T23:46:45.654Z,62.59
2023-02-24T23:49:14.900Z,62.86
2023-02-24T23:51:48.417Z,62.18
2023-02-24T23:54:17.442Z,62.49
2023-02-24T23:56:46.572Z,62.77
2023-02-24T23:59:15.092Z,63.21
